sensor_id;sensor_type;location;lat;lon;timestamp;P1;durP1;ratioP1;P2;durP2;ratioP2
54263;SDS011;40178;53.042;6.406;2023-06-22T00:02:25;14.60;;;10.10;;
54263;SDS011;40178;53.042;6.406;2023-06-22T00:04:50;13.88;;;10.20;;
54263;SDS011;40178;53.042;6.406;2023-06-22T00:07:16;11.95;;;7.90;;
54263;SDS011;40178;53.042;6.406;2023-06-22T00:09:44;7.93;;;6.40;;
54263;SDS011;40178;53.042;6.406;2023-06-22T00:12:10;7.43;;;5.75;;
54263;SDS011;40178;53.042;6.406;2023-06-22T00:14:35;7.75;;;5.55;;
54263;SDS011;40178;53.042;6.406;2023-06-22T00:17:01;6.55;;;5.50;;
54263;SDS011;40178;53.042;6.406;2023-06-22T00:19:27;7.50;;;5.85;;
54263;SDS011;40178;53.042;6.406;2023-06-22T00:21:52;8.75;;;6.15;;
54263;SDS011;40178;53.042;6.406;2023-06-22T00:24:21;9.07;;;6.82;;
54263;SDS011;40178;53.042;6.406;2023-06-22T00:26:47;5.75;;;4.60;;
54263;SDS011;40178;53.042;6.406;2023-06-22T00:29:13;10.73;;;6.75;;
54263;SDS011;40178;53.042;6.406;2023-06-22T00:31:39;10.48;;;8.18;;
54263;SDS011;40178;53.042;6.406;2023-06-22T00:34:05;10.35;;;7.90;;
54263;SDS011;40178;53.042;6.406;2023-06-22T00:36:33;10.73;;;9.07;;
54263;SDS011;40178;53.042;6.406;2023-06-22T00:38:59;12.90;;;8.10;;
54263;SDS011;40178;53.042;6.406;2023-06-22T00:41:25;9.57;;;6.80;;
54263;SDS011;40178;53.042;6.406;2023-06-22T00:43:53;12.75;;;9.57;;
54263;SDS011;40178;53.042;6.406;2023-06-22T00:46:19;13.07;;;9.38;;
54263;SDS011;40178;53.042;6.406;2023-06-22T00:48:46;9.65;;;7.97;;
54263;SDS011;40178;53.042;6.406;2023-06-22T00:51:11;9.10;;;7.43;;
54263;SDS011;40178;53.042;6.406;2023-06-22T00:53:37;9.05;;;6.85;;
54263;SDS011;40178;53.042;6.406;2023-06-22T00:56:03;8.68;;;7.05;;
54263;SDS011;40178;53.042;6.406;2023-06-22T00:58:30;9.52;;;7.43;;
54263;SDS011;40178;53.042;6.406;2023-06-22T01:00:56;12.82;;;9.02;;
54263;SDS011;40178;53.042;6.406;2023-06-22T01:03:22;10.48;;;8.32;;
54263;SDS011;40178;53.042;6.406;2023-06-22T01:05:47;14.43;;;10.15;;
54263;SDS011;40178;53.042;6.406;2023-06-22T01:11:03;18.40;;;13.90;;
54263;SDS011;40178;53.042;6.406;2023-06-22T01:16:12;15.98;;;12.10;;
54263;SDS011;40178;53.042;6.406;2023-06-22T01:18:45;14.60;;;11.35;;
54263;SDS011;40178;53.042;6.406;2023-06-22T01:21:16;15.95;;;12.75;;
54263;SDS011;40178;53.042;6.406;2023-06-22T01:29:52;9.20;;;6.72;;
54263;SDS011;40178;53.042;6.406;2023-06-22T01:32:30;9.38;;;7.13;;
54263;SDS011;40178;53.042;6.406;2023-06-22T01:35:00;9.55;;;7.45;;
54263;SDS011;40178;53.042;6.406;2023-06-22T01:37:28;8.15;;;7.03;;
54263;SDS011;40178;53.042;6.406;2023-06-22T01:39:56;7.50;;;6.10;;
54263;SDS011;40178;53.042;6.406;2023-06-22T01:42:23;9.38;;;7.45;;
54263;SDS011;40178;53.042;6.406;2023-06-22T01:44:51;8.48;;;6.72;;
54263;SDS011;40178;53.042;6.406;2023-06-22T01:47:18;10.60;;;7.82;;
54263;SDS011;40178;53.042;6.406;2023-06-22T01:49:46;10.93;;;9.63;;
54263;SDS011;40178;53.042;6.406;2023-06-22T01:52:12;22.63;;;10.93;;
54263;SDS011;40178;53.042;6.406;2023-06-22T01:54:38;16.48;;;10.57;;
54263;SDS011;40178;53.042;6.406;2023-06-22T01:57:05;27.00;;;10.95;;
54263;SDS011;40178;53.042;6.406;2023-06-22T01:59:34;38.10;;;11.60;;
54263;SDS011;40178;53.042;6.406;2023-06-22T02:02:09;15.18;;;10.40;;
54263;SDS011;40178;53.042;6.406;2023-06-22T02:04:54;19.67;;;8.90;;
54263;SDS011;40178;53.042;6.406;2023-06-22T02:07:28;14.35;;;8.65;;
54263;SDS011;40178;53.042;6.406;2023-06-22T02:09:57;11.30;;;8.80;;
54263;SDS011;40178;53.042;6.406;2023-06-22T02:12:25;16.40;;;9.70;;
54263;SDS011;40178;53.042;6.406;2023-06-22T02:14:52;13.95;;;9.20;;
54263;SDS011;40178;53.042;6.406;2023-06-22T02:17:19;11.70;;;9.65;;
54263;SDS011;40178;53.042;6.406;2023-06-22T02:19:45;19.52;;;9.32;;
54263;SDS011;40178;53.042;6.406;2023-06-22T02:22:10;11.95;;;8.57;;
54263;SDS011;40178;53.042;6.406;2023-06-22T02:24:37;15.88;;;10.23;;
54263;SDS011;40178;53.042;6.406;2023-06-22T02:27:03;11.55;;;9.25;;
54263;SDS011;40178;53.042;6.406;2023-06-22T02:29:31;10.55;;;9.18;;
54263;SDS011;40178;53.042;6.406;2023-06-22T02:31:56;9.68;;;8.18;;
54263;SDS011;40178;53.042;6.406;2023-06-22T02:34:22;9.65;;;8.60;;
54263;SDS011;40178;53.042;6.406;2023-06-22T02:36:48;10.43;;;9.20;;
54263;SDS011;40178;53.042;6.406;2023-06-22T02:39:20;10.27;;;8.95;;
54263;SDS011;40178;53.042;6.406;2023-06-22T02:41:51;11.75;;;9.00;;
54263;SDS011;40178;53.042;6.406;2023-06-22T02:44:17;11.18;;;8.95;;
54263;SDS011;40178;53.042;6.406;2023-06-22T02:46:44;12.70;;;9.02;;
54263;SDS011;40178;53.042;6.406;2023-06-22T02:49:10;12.70;;;10.20;;
54263;SDS011;40178;53.042;6.406;2023-06-22T02:51:37;10.70;;;8.88;;
54263;SDS011;40178;53.042;6.406;2023-06-22T02:54:04;13.50;;;10.50;;
54263;SDS011;40178;53.042;6.406;2023-06-22T02:56:30;20.58;;;13.10;;
54263;SDS011;40178;53.042;6.406;2023-06-22T02:58:56;14.02;;;10.23;;
54263;SDS011;40178;53.042;6.406;2023-06-22T03:01:26;17.83;;;10.77;;
54263;SDS011;40178;53.042;6.406;2023-06-22T03:03:53;15.48;;;12.07;;
54263;SDS011;40178;53.042;6.406;2023-06-22T03:06:20;22.90;;;12.70;;
54263;SDS011;40178;53.042;6.406;2023-06-22T03:08:51;22.63;;;13.45;;
54263;SDS011;40178;53.042;6.406;2023-06-22T03:11:17;30.75;;;14.35;;
54263;SDS011;40178;53.042;6.406;2023-06-22T03:13:43;18.70;;;12.95;;
54263;SDS011;40178;53.042;6.406;2023-06-22T03:16:08;18.02;;;13.93;;
54263;SDS011;40178;53.042;6.406;2023-06-22T03:18:34;28.92;;;12.40;;
54263;SDS011;40178;53.042;6.406;2023-06-22T03:20:59;25.77;;;13.20;;
54263;SDS011;40178;53.042;6.406;2023-06-22T03:23:27;39.83;;;14.95;;
54263;SDS011;40178;53.042;6.406;2023-06-22T03:25:52;36.45;;;15.65;;
54263;SDS011;40178;53.042;6.406;2023-06-22T03:28:20;26.98;;;14.35;;
54263;SDS011;40178;53.042;6.406;2023-06-22T03:30:46;23.58;;;14.70;;
54263;SDS011;40178;53.042;6.406;2023-06-22T03:33:12;42.85;;;14.70;;
54263;SDS011;40178;53.042;6.406;2023-06-22T03:35:37;43.20;;;15.23;;
54263;SDS011;40178;53.042;6.406;2023-06-22T03:38:03;36.17;;;15.27;;
54263;SDS011;40178;53.042;6.406;2023-06-22T03:40:29;37.80;;;14.82;;
54263;SDS011;40178;53.042;6.406;2023-06-22T03:42:55;34.55;;;14.18;;
54263;SDS011;40178;53.042;6.406;2023-06-22T03:45:21;41.70;;;14.88;;
54263;SDS011;40178;53.042;6.406;2023-06-22T03:47:46;28.33;;;12.45;;
54263;SDS011;40178;53.042;6.406;2023-06-22T03:50:12;29.50;;;13.27;;
54263;SDS011;40178;53.042;6.406;2023-06-22T03:52:38;31.13;;;13.52;;
54263;SDS011;40178;53.042;6.406;2023-06-22T03:55:05;24.40;;;12.80;;
54263;SDS011;40178;53.042;6.406;2023-06-22T03:57:31;14.52;;;12.57;;
54263;SDS011;40178;53.042;6.406;2023-06-22T03:59:57;15.05;;;12.90;;
54263;SDS011;40178;53.042;6.406;2023-06-22T04:02:23;14.15;;;12.75;;
54263;SDS011;40178;53.042;6.406;2023-06-22T04:04:49;17.35;;;14.50;;
54263;SDS011;40178;53.042;6.406;2023-06-22T04:07:15;15.88;;;14.23;;
54263;SDS011;40178;53.042;6.406;2023-06-22T04:09:40;16.58;;;14.18;;
54263;SDS011;40178;53.042;6.406;2023-06-22T04:12:06;16.05;;;13.95;;
54263;SDS011;40178;53.042;6.406;2023-06-22T04:14:32;16.98;;;13.65;;
54263;SDS011;40178;53.042;6.406;2023-06-22T04:16:58;17.73;;;14.77;;
54263;SDS011;40178;53.042;6.406;2023-06-22T04:19:23;17.63;;;14.68;;
54263;SDS011;40178;53.042;6.406;2023-06-22T04:21:49;18.17;;;14.85;;
54263;SDS011;40178;53.042;6.406;2023-06-22T04:24:15;17.15;;;14.68;;
54263;SDS011;40178;53.042;6.406;2023-06-22T04:26:41;22.55;;;16.25;;
54263;SDS011;40178;53.042;6.406;2023-06-22T04:29:10;19.00;;;16.13;;
54263;SDS011;40178;53.042;6.406;2023-06-22T04:31:36;18.45;;;15.43;;
54263;SDS011;40178;53.042;6.406;2023-06-22T04:34:03;19.33;;;15.82;;
54263;SDS011;40178;53.042;6.406;2023-06-22T04:36:36;19.67;;;16.20;;
54263;SDS011;40178;53.042;6.406;2023-06-22T04:41:43;20.63;;;16.17;;
54263;SDS011;40178;53.042;6.406;2023-06-22T04:44:13;18.63;;;16.00;;
54263;SDS011;40178;53.042;6.406;2023-06-22T04:46:49;21.75;;;16.60;;
54263;SDS011;40178;53.042;6.406;2023-06-22T04:49:25;19.08;;;16.48;;
54263;SDS011;40178;53.042;6.406;2023-06-22T04:51:57;21.55;;;17.00;;
54263;SDS011;40178;53.042;6.406;2023-06-22T04:54:27;21.60;;;18.10;;
54263;SDS011;40178;53.042;6.406;2023-06-22T04:56:53;25.23;;;18.73;;
54263;SDS011;40178;53.042;6.406;2023-06-22T04:59:22;31.65;;;20.80;;
54263;SDS011;40178;53.042;6.406;2023-06-22T05:01:54;25.70;;;19.90;;
54263;SDS011;40178;53.042;6.406;2023-06-22T05:04:21;24.58;;;20.08;;
54263;SDS011;40178;53.042;6.406;2023-06-22T05:06:51;26.17;;;21.45;;
54263;SDS011;40178;53.042;6.406;2023-06-22T05:09:17;28.85;;;21.73;;
54263;SDS011;40178;53.042;6.406;2023-06-22T05:11:44;28.63;;;21.92;;
54263;SDS011;40178;53.042;6.406;2023-06-22T05:14:10;29.98;;;22.30;;
54263;SDS011;40178;53.042;6.406;2023-06-22T05:16:36;32.65;;;22.45;;
54263;SDS011;40178;53.042;6.406;2023-06-22T05:19:02;31.45;;;24.13;;
54263;SDS011;40178;53.042;6.406;2023-06-22T05:21:29;32.95;;;24.30;;
54263;SDS011;40178;53.042;6.406;2023-06-22T05:23:55;33.22;;;24.73;;
54263;SDS011;40178;53.042;6.406;2023-06-22T05:26:25;33.00;;;25.00;;
54263;SDS011;40178;53.042;6.406;2023-06-22T05:28:51;32.33;;;24.48;;
54263;SDS011;40178;53.042;6.406;2023-06-22T05:31:18;34.80;;;25.08;;
54263;SDS011;40178;53.042;6.406;2023-06-22T05:33:47;34.20;;;25.45;;
54263;SDS011;40178;53.042;6.406;2023-06-22T05:36:14;35.85;;;26.55;;
54263;SDS011;40178;53.042;6.406;2023-06-22T05:38:40;35.47;;;25.42;;
54263;SDS011;40178;53.042;6.406;2023-06-22T05:41:06;35.35;;;25.27;;
54263;SDS011;40178;53.042;6.406;2023-06-22T05:43:33;35.92;;;26.38;;
54263;SDS011;40178;53.042;6.406;2023-06-22T05:45:59;35.58;;;24.75;;
54263;SDS011;40178;53.042;6.406;2023-06-22T05:48:26;36.17;;;25.38;;
54263;SDS011;40178;53.042;6.406;2023-06-22T05:50:52;33.65;;;25.10;;
54263;SDS011;40178;53.042;6.406;2023-06-22T05:53:18;36.03;;;25.20;;
54263;SDS011;40178;53.042;6.406;2023-06-22T05:55:44;32.50;;;24.60;;
54263;SDS011;40178;53.042;6.406;2023-06-22T05:58:10;36.08;;;25.25;;
54263;SDS011;40178;53.042;6.406;2023-06-22T06:00:36;34.90;;;25.45;;
54263;SDS011;40178;53.042;6.406;2023-06-22T06:03:02;36.83;;;26.30;;
54263;SDS011;40178;53.042;6.406;2023-06-22T06:05:28;39.00;;;24.98;;
54263;SDS011;40178;53.042;6.406;2023-06-22T06:07:55;36.30;;;25.15;;
54263;SDS011;40178;53.042;6.406;2023-06-22T06:10:20;35.95;;;25.45;;
54263;SDS011;40178;53.042;6.406;2023-06-22T06:12:46;36.67;;;25.70;;
54263;SDS011;40178;53.042;6.406;2023-06-22T06:15:12;34.63;;;24.10;;
54263;SDS011;40178;53.042;6.406;2023-06-22T06:17:47;33.45;;;23.55;;
54263;SDS011;40178;53.042;6.406;2023-06-22T06:20:13;31.20;;;23.65;;
54263;SDS011;40178;53.042;6.406;2023-06-22T06:22:39;32.63;;;22.70;;
54263;SDS011;40178;53.042;6.406;2023-06-22T06:25:05;32.35;;;21.55;;
54263;SDS011;40178;53.042;6.406;2023-06-22T06:27:31;30.33;;;22.08;;
54263;SDS011;40178;53.042;6.406;2023-06-22T06:29:56;30.73;;;21.25;;
54263;SDS011;40178;53.042;6.406;2023-06-22T06:32:22;28.42;;;21.73;;
54263;SDS011;40178;53.042;6.406;2023-06-22T06:34:48;30.58;;;20.95;;
54263;SDS011;40178;53.042;6.406;2023-06-22T06:37:13;27.33;;;20.65;;
54263;SDS011;40178;53.042;6.406;2023-06-22T06:39:40;25.08;;;18.83;;
54263;SDS011;40178;53.042;6.406;2023-06-22T06:42:06;26.45;;;19.38;;
54263;SDS011;40178;53.042;6.406;2023-06-22T06:44:31;26.63;;;19.02;;
54263;SDS011;40178;53.042;6.406;2023-06-22T06:46:57;28.55;;;20.42;;
54263;SDS011;40178;53.042;6.406;2023-06-22T06:49:23;27.95;;;19.38;;
54263;SDS011;40178;53.042;6.406;2023-06-22T06:51:48;25.00;;;17.77;;
54263;SDS011;40178;53.042;6.406;2023-06-22T06:54:14;24.85;;;17.65;;
54263;SDS011;40178;53.042;6.406;2023-06-22T06:56:40;22.67;;;16.48;;
54263;SDS011;40178;53.042;6.406;2023-06-22T06:59:09;20.58;;;14.02;;
54263;SDS011;40178;53.042;6.406;2023-06-22T07:01:35;19.20;;;14.18;;
54263;SDS011;40178;53.042;6.406;2023-06-22T07:04:00;18.70;;;13.60;;
54263;SDS011;40178;53.042;6.406;2023-06-22T07:06:26;17.83;;;13.63;;
54263;SDS011;40178;53.042;6.406;2023-06-22T07:08:55;17.52;;;13.45;;
54263;SDS011;40178;53.042;6.406;2023-06-22T07:11:20;16.95;;;12.65;;
54263;SDS011;40178;53.042;6.406;2023-06-22T07:13:46;18.60;;;12.50;;
54263;SDS011;40178;53.042;6.406;2023-06-22T07:16:11;18.05;;;12.55;;
54263;SDS011;40178;53.042;6.406;2023-06-22T07:18:39;18.05;;;12.52;;
54263;SDS011;40178;53.042;6.406;2023-06-22T07:21:04;19.42;;;12.63;;
54263;SDS011;40178;53.042;6.406;2023-06-22T07:23:31;19.48;;;12.85;;
54263;SDS011;40178;53.042;6.406;2023-06-22T07:25:57;17.98;;;12.02;;
54263;SDS011;40178;53.042;6.406;2023-06-22T07:28:27;20.60;;;12.82;;
54263;SDS011;40178;53.042;6.406;2023-06-22T07:30:53;17.60;;;12.07;;
54263;SDS011;40178;53.042;6.406;2023-06-22T07:33:19;15.70;;;11.05;;
54263;SDS011;40178;53.042;6.406;2023-06-22T07:35:44;14.75;;;10.30;;
54263;SDS011;40178;53.042;6.406;2023-06-22T07:38:12;14.57;;;10.55;;
54263;SDS011;40178;53.042;6.406;2023-06-22T07:40:37;14.60;;;9.20;;
54263;SDS011;40178;53.042;6.406;2023-06-22T07:43:03;13.05;;;9.20;;
54263;SDS011;40178;53.042;6.406;2023-06-22T07:45:29;16.23;;;10.23;;
54263;SDS011;40178;53.042;6.406;2023-06-22T07:47:54;14.60;;;8.50;;
54263;SDS011;40178;53.042;6.406;2023-06-22T07:50:20;13.43;;;8.40;;
54263;SDS011;40178;53.042;6.406;2023-06-22T07:52:46;15.82;;;9.52;;
54263;SDS011;40178;53.042;6.406;2023-06-22T07:55:13;12.32;;;8.00;;
54263;SDS011;40178;53.042;6.406;2023-06-22T07:57:38;11.80;;;7.95;;
54263;SDS011;40178;53.042;6.406;2023-06-22T08:00:05;12.60;;;8.50;;
54263;SDS011;40178;53.042;6.406;2023-06-22T08:02:41;13.57;;;8.10;;
54263;SDS011;40178;53.042;6.406;2023-06-22T08:05:08;14.45;;;8.07;;
54263;SDS011;40178;53.042;6.406;2023-06-22T08:07:35;13.23;;;8.35;;
54263;SDS011;40178;53.042;6.406;2023-06-22T08:10:02;12.60;;;8.43;;
54263;SDS011;40178;53.042;6.406;2023-06-22T08:12:29;11.65;;;8.77;;
54263;SDS011;40178;53.042;6.406;2023-06-22T08:14:54;13.93;;;9.35;;
54263;SDS011;40178;53.042;6.406;2023-06-22T08:17:21;11.48;;;8.55;;
54263;SDS011;40178;53.042;6.406;2023-06-22T08:19:48;13.15;;;9.48;;
54263;SDS011;40178;53.042;6.406;2023-06-22T08:22:13;12.40;;;7.28;;
54263;SDS011;40178;53.042;6.406;2023-06-22T08:24:40;12.98;;;8.55;;
54263;SDS011;40178;53.042;6.406;2023-06-22T08:27:09;13.95;;;9.50;;
54263;SDS011;40178;53.042;6.406;2023-06-22T08:29:39;16.75;;;9.93;;
54263;SDS011;40178;53.042;6.406;2023-06-22T08:32:07;12.18;;;8.27;;
54263;SDS011;40178;53.042;6.406;2023-06-22T08:34:37;11.25;;;7.40;;
54263;SDS011;40178;53.042;6.406;2023-06-22T08:37:07;12.00;;;7.72;;
54263;SDS011;40178;53.042;6.406;2023-06-22T08:39:35;12.48;;;8.55;;
54263;SDS011;40178;53.042;6.406;2023-06-22T08:42:01;17.15;;;8.73;;
54263;SDS011;40178;53.042;6.406;2023-06-22T08:44:27;12.07;;;7.93;;
54263;SDS011;40178;53.042;6.406;2023-06-22T08:46:53;12.68;;;8.65;;
54263;SDS011;40178;53.042;6.406;2023-06-22T08:49:18;12.95;;;8.93;;
54263;SDS011;40178;53.042;6.406;2023-06-22T08:51:44;12.48;;;8.43;;
54263;SDS011;40178;53.042;6.406;2023-06-22T08:54:10;12.10;;;7.80;;
54263;SDS011;40178;53.042;6.406;2023-06-22T08:56:36;11.25;;;8.35;;
54263;SDS011;40178;53.042;6.406;2023-06-22T08:59:02;12.23;;;8.98;;
54263;SDS011;40178;53.042;6.406;2023-06-22T09:01:27;11.65;;;8.10;;
54263;SDS011;40178;53.042;6.406;2023-06-22T09:03:53;11.82;;;8.63;;
54263;SDS011;40178;53.042;6.406;2023-06-22T09:06:23;11.25;;;7.75;;
54263;SDS011;40178;53.042;6.406;2023-06-22T09:08:49;11.60;;;8.65;;
54263;SDS011;40178;53.042;6.406;2023-06-22T09:11:15;12.40;;;8.52;;
54263;SDS011;40178;53.042;6.406;2023-06-22T09:13:41;13.02;;;8.55;;
54263;SDS011;40178;53.042;6.406;2023-06-22T09:16:07;11.40;;;8.05;;
54263;SDS011;40178;53.042;6.406;2023-06-22T09:18:33;11.65;;;7.85;;
54263;SDS011;40178;53.042;6.406;2023-06-22T09:20:59;11.55;;;7.82;;
54263;SDS011;40178;53.042;6.406;2023-06-22T09:23:25;13.35;;;8.57;;
54263;SDS011;40178;53.042;6.406;2023-06-22T09:25:51;11.10;;;7.93;;
54263;SDS011;40178;53.042;6.406;2023-06-22T09:28:16;12.05;;;8.02;;
54263;SDS011;40178;53.042;6.406;2023-06-22T09:30:42;11.52;;;7.97;;
54263;SDS011;40178;53.042;6.406;2023-06-22T09:33:09;12.18;;;7.22;;
54263;SDS011;40178;53.042;6.406;2023-06-22T09:35:35;11.68;;;8.07;;
54263;SDS011;40178;53.042;6.406;2023-06-22T09:38:00;11.45;;;7.18;;
54263;SDS011;40178;53.042;6.406;2023-06-22T09:40:26;12.43;;;7.30;;
54263;SDS011;40178;53.042;6.406;2023-06-22T09:42:52;10.30;;;6.70;;
54263;SDS011;40178;53.042;6.406;2023-06-22T09:45:17;10.10;;;6.38;;
54263;SDS011;40178;53.042;6.406;2023-06-22T09:47:43;10.30;;;6.82;;
54263;SDS011;40178;53.042;6.406;2023-06-22T09:50:09;10.18;;;6.40;;
54263;SDS011;40178;53.042;6.406;2023-06-22T09:52:34;10.07;;;6.32;;
54263;SDS011;40178;53.042;6.406;2023-06-22T09:55:00;11.68;;;6.60;;
54263;SDS011;40178;53.042;6.406;2023-06-22T09:57:26;9.38;;;6.82;;
54263;SDS011;40178;53.042;6.406;2023-06-22T09:59:51;10.27;;;7.53;;
54263;SDS011;40178;53.042;6.406;2023-06-22T10:02:17;10.30;;;7.38;;
54263;SDS011;40178;53.042;6.406;2023-06-22T10:04:43;10.73;;;7.10;;
54263;SDS011;40178;53.042;6.406;2023-06-22T10:07:08;8.75;;;6.70;;
54263;SDS011;40178;53.042;6.406;2023-06-22T10:09:34;9.85;;;6.63;;
54263;SDS011;40178;53.042;6.406;2023-06-22T10:12:00;9.35;;;6.78;;
54263;SDS011;40178;53.042;6.406;2023-06-22T10:14:25;9.30;;;6.97;;
54263;SDS011;40178;53.042;6.406;2023-06-22T10:16:52;9.65;;;6.40;;
54263;SDS011;40178;53.042;6.406;2023-06-22T10:19:18;8.93;;;5.85;;
54263;SDS011;40178;53.042;6.406;2023-06-22T10:21:43;8.23;;;5.68;;
54263;SDS011;40178;53.042;6.406;2023-06-22T10:24:09;8.85;;;6.18;;
54263;SDS011;40178;53.042;6.406;2023-06-22T10:26:35;11.35;;;6.40;;
54263;SDS011;40178;53.042;6.406;2023-06-22T10:29:02;7.90;;;5.20;;
54263;SDS011;40178;53.042;6.406;2023-06-22T10:31:28;9.48;;;5.90;;
54263;SDS011;40178;53.042;6.406;2023-06-22T10:33:54;9.45;;;6.40;;
54263;SDS011;40178;53.042;6.406;2023-06-22T10:36:21;9.07;;;6.38;;
54263;SDS011;40178;53.042;6.406;2023-06-22T10:38:47;10.27;;;5.60;;
54263;SDS011;40178;53.042;6.406;2023-06-22T10:41:13;8.55;;;5.00;;
54263;SDS011;40178;53.042;6.406;2023-06-22T10:43:39;8.30;;;5.45;;
54263;SDS011;40178;53.042;6.406;2023-06-22T10:46:05;10.10;;;6.35;;
54263;SDS011;40178;53.042;6.406;2023-06-22T10:48:31;8.63;;;5.90;;
54263;SDS011;40178;53.042;6.406;2023-06-22T10:50:57;6.93;;;4.43;;
54263;SDS011;40178;53.042;6.406;2023-06-22T10:53:23;7.95;;;5.20;;
54263;SDS011;40178;53.042;6.406;2023-06-22T10:55:48;8.43;;;5.28;;
54263;SDS011;40178;53.042;6.406;2023-06-22T10:58:14;11.63;;;6.28;;
54263;SDS011;40178;53.042;6.406;2023-06-22T11:00:40;9.55;;;6.15;;
54263;SDS011;40178;53.042;6.406;2023-06-22T11:03:05;11.32;;;5.90;;
54263;SDS011;40178;53.042;6.406;2023-06-22T11:05:31;10.75;;;5.60;;
54263;SDS011;40178;53.042;6.406;2023-06-22T11:07:57;10.15;;;5.85;;
54263;SDS011;40178;53.042;6.406;2023-06-22T11:10:22;7.63;;;4.97;;
54263;SDS011;40178;53.042;6.406;2023-06-22T11:12:48;8.38;;;4.82;;
54263;SDS011;40178;53.042;6.406;2023-06-22T11:15:14;7.80;;;5.07;;
54263;SDS011;40178;53.042;6.406;2023-06-22T11:17:39;10.05;;;6.07;;
54263;SDS011;40178;53.042;6.406;2023-06-22T11:20:05;13.63;;;5.88;;
54263;SDS011;40178;53.042;6.406;2023-06-22T11:22:36;10.88;;;5.55;;
54263;SDS011;40178;53.042;6.406;2023-06-22T11:25:06;7.45;;;5.30;;
54263;SDS011;40178;53.042;6.406;2023-06-22T11:27:32;8.25;;;4.78;;
54263;SDS011;40178;53.042;6.406;2023-06-22T11:29:58;6.60;;;4.38;;
54263;SDS011;40178;53.042;6.406;2023-06-22T11:32:24;7.90;;;5.10;;
54263;SDS011;40178;53.042;6.406;2023-06-22T11:34:49;9.27;;;5.28;;
54263;SDS011;40178;53.042;6.406;2023-06-22T11:37:15;7.60;;;5.65;;
54263;SDS011;40178;53.042;6.406;2023-06-22T11:39:41;7.50;;;4.85;;
54263;SDS011;40178;53.042;6.406;2023-06-22T11:42:07;33.75;;;9.52;;
54263;SDS011;40178;53.042;6.406;2023-06-22T11:44:34;19.85;;;7.60;;
54263;SDS011;40178;53.042;6.406;2023-06-22T11:46:59;9.15;;;6.25;;
54263;SDS011;40178;53.042;6.406;2023-06-22T11:49:26;9.73;;;6.32;;
54263;SDS011;40178;53.042;6.406;2023-06-22T11:51:52;9.20;;;5.80;;
54263;SDS011;40178;53.042;6.406;2023-06-22T11:54:18;9.20;;;5.35;;
54263;SDS011;40178;53.042;6.406;2023-06-22T11:56:43;8.20;;;5.32;;
54263;SDS011;40178;53.042;6.406;2023-06-22T11:59:09;9.57;;;5.88;;
54263;SDS011;40178;53.042;6.406;2023-06-22T12:01:35;9.13;;;5.65;;
54263;SDS011;40178;53.042;6.406;2023-06-22T12:04:00;8.05;;;5.50;;
54263;SDS011;40178;53.042;6.406;2023-06-22T12:06:26;8.07;;;5.03;;
54263;SDS011;40178;53.042;6.406;2023-06-22T12:08:52;7.18;;;4.65;;
54263;SDS011;40178;53.042;6.406;2023-06-22T12:11:18;9.23;;;6.13;;
54263;SDS011;40178;53.042;6.406;2023-06-22T12:13:43;8.13;;;5.07;;
54263;SDS011;40178;53.042;6.406;2023-06-22T12:16:09;8.60;;;5.47;;
54263;SDS011;40178;53.042;6.406;2023-06-22T12:18:34;10.40;;;5.70;;
54263;SDS011;40178;53.042;6.406;2023-06-22T12:21:00;9.07;;;6.28;;
54263;SDS011;40178;53.042;6.406;2023-06-22T12:23:26;8.20;;;5.93;;
54263;SDS011;40178;53.042;6.406;2023-06-22T12:25:51;8.00;;;5.78;;
54263;SDS011;40178;53.042;6.406;2023-06-22T12:28:17;7.55;;;5.45;;
54263;SDS011;40178;53.042;6.406;2023-06-22T12:30:42;7.63;;;5.03;;
54263;SDS011;40178;53.042;6.406;2023-06-22T12:33:08;9.13;;;6.30;;
54263;SDS011;40178;53.042;6.406;2023-06-22T12:35:34;9.13;;;6.35;;
54263;SDS011;40178;53.042;6.406;2023-06-22T12:38:00;9.13;;;5.20;;
54263;SDS011;40178;53.042;6.406;2023-06-22T12:40:25;8.02;;;5.35;;
54263;SDS011;40178;53.042;6.406;2023-06-22T12:42:51;7.35;;;4.75;;
54263;SDS011;40178;53.042;6.406;2023-06-22T12:45:16;6.82;;;4.43;;
54263;SDS011;40178;53.042;6.406;2023-06-22T12:47:42;9.07;;;5.57;;
54263;SDS011;40178;53.042;6.406;2023-06-22T12:50:08;7.13;;;5.10;;
54263;SDS011;40178;53.042;6.406;2023-06-22T12:52:35;8.98;;;5.43;;
54263;SDS011;40178;53.042;6.406;2023-06-22T12:55:04;9.25;;;6.47;;
54263;SDS011;40178;53.042;6.406;2023-06-22T12:57:29;9.05;;;6.22;;
54263;SDS011;40178;53.042;6.406;2023-06-22T12:59:55;7.85;;;5.40;;
54263;SDS011;40178;53.042;6.406;2023-06-22T13:02:21;7.07;;;4.72;;
54263;SDS011;40178;53.042;6.406;2023-06-22T13:04:46;7.93;;;5.45;;
54263;SDS011;40178;53.042;6.406;2023-06-22T13:07:12;9.57;;;5.72;;
54263;SDS011;40178;53.042;6.406;2023-06-22T13:09:37;8.68;;;5.28;;
54263;SDS011;40178;53.042;6.406;2023-06-22T13:12:03;8.10;;;5.38;;
54263;SDS011;40178;53.042;6.406;2023-06-22T13:14:29;9.68;;;5.35;;
54263;SDS011;40178;53.042;6.406;2023-06-22T13:16:54;8.63;;;6.05;;
54263;SDS011;40178;53.042;6.406;2023-06-22T13:19:20;9.23;;;5.07;;
54263;SDS011;40178;53.042;6.406;2023-06-22T13:21:46;8.15;;;5.28;;
54263;SDS011;40178;53.042;6.406;2023-06-22T13:24:11;8.23;;;4.90;;
54263;SDS011;40178;53.042;6.406;2023-06-22T13:26:37;10.57;;;5.43;;
54263;SDS011;40178;53.042;6.406;2023-06-22T13:29:04;8.13;;;5.07;;
54263;SDS011;40178;53.042;6.406;2023-06-22T13:31:29;8.65;;;5.70;;
54263;SDS011;40178;53.042;6.406;2023-06-22T13:33:55;12.93;;;6.72;;
54263;SDS011;40178;53.042;6.406;2023-06-22T13:36:20;19.27;;;7.97;;
54263;SDS011;40178;53.042;6.406;2023-06-22T13:38:48;10.20;;;5.88;;
54263;SDS011;40178;53.042;6.406;2023-06-22T13:41:13;10.10;;;5.53;;
54263;SDS011;40178;53.042;6.406;2023-06-22T13:43:39;7.72;;;4.97;;
54263;SDS011;40178;53.042;6.406;2023-06-22T13:46:05;7.75;;;5.57;;
54263;SDS011;40178;53.042;6.406;2023-06-22T13:48:30;24.17;;;9.05;;
54263;SDS011;40178;53.042;6.406;2023-06-22T13:50:56;9.18;;;5.88;;
54263;SDS011;40178;53.042;6.406;2023-06-22T13:53:24;9.45;;;5.55;;
54263;SDS011;40178;53.042;6.406;2023-06-22T13:55:51;9.05;;;5.68;;
54263;SDS011;40178;53.042;6.406;2023-06-22T13:58:16;10.63;;;6.35;;
54263;SDS011;40178;53.042;6.406;2023-06-22T14:00:42;7.55;;;4.97;;
54263;SDS011;40178;53.042;6.406;2023-06-22T14:03:07;11.00;;;6.18;;
54263;SDS011;40178;53.042;6.406;2023-06-22T14:05:33;8.75;;;6.05;;
54263;SDS011;40178;53.042;6.406;2023-06-22T14:07:59;9.35;;;5.88;;
54263;SDS011;40178;53.042;6.406;2023-06-22T14:10:24;9.23;;;5.72;;
54263;SDS011;40178;53.042;6.406;2023-06-22T14:12:50;9.98;;;5.50;;
54263;SDS011;40178;53.042;6.406;2023-06-22T14:15:16;8.95;;;5.40;;
54263;SDS011;40178;53.042;6.406;2023-06-22T14:17:42;7.80;;;4.50;;
54263;SDS011;40178;53.042;6.406;2023-06-22T14:20:07;8.60;;;5.63;;
54263;SDS011;40178;53.042;6.406;2023-06-22T14:22:33;16.90;;;4.88;;
54263;SDS011;40178;53.042;6.406;2023-06-22T14:25:00;7.13;;;4.28;;
54263;SDS011;40178;53.042;6.406;2023-06-22T14:27:26;6.43;;;3.90;;
54263;SDS011;40178;53.042;6.406;2023-06-22T14:29:52;6.53;;;3.78;;
54263;SDS011;40178;53.042;6.406;2023-06-22T14:32:18;6.85;;;3.50;;
54263;SDS011;40178;53.042;6.406;2023-06-22T14:34:43;6.88;;;3.85;;
54263;SDS011;40178;53.042;6.406;2023-06-22T14:37:09;8.02;;;3.95;;
54263;SDS011;40178;53.042;6.406;2023-06-22T14:39:35;9.13;;;4.20;;
54263;SDS011;40178;53.042;6.406;2023-06-22T14:42:02;6.53;;;3.78;;
54263;SDS011;40178;53.042;6.406;2023-06-22T14:44:28;6.82;;;3.17;;